createdAt,value
2022-08-26T00:01:35.069Z,9.07
2022-08-26T00:05:36.904Z,8.13
2022-08-26T00:09:40.095Z,9.13
2022-08-26T00:13:42.234Z,8.38
2022-08-26T00:17:51.923Z,8.45
2022-08-26T00:21:53.445Z,8.50
2022-08-26T00:25:54.957Z,9.68
2022-08-26T00:29:58.328Z,8.57
2022-08-26T00:33:59.809Z,8.82
2022-08-26T00:38:01.869Z,8.77
2022-08-26T00:42:03.972Z,8.57
2022-08-26T00:46:13.622Z,8.88
2022-08-26T00:50:21.783Z,8.48
2022-08-26T00:54:27.323Z,9.52
2022-08-26T00:58:31.468Z,10.13
2022-08-26T01:02:32.978Z,7.95
2022-08-26T01:06:34.861Z,9.32
2022-08-26T01:10:37.190Z,8.18
2022-08-26T01:14:40.688Z,8.30
2022-08-26T01:18:43.357Z,8.05
2022-08-26T01:22:56.903Z,7.97
2022-08-26T01:27:05.335Z,8.35
2022-08-26T01:31:11.362Z,8.07
2022-08-26T01:35:16.384Z,8.38
2022-08-26T01:39:20.645Z,8.50
2022-08-26T01:43:27.174Z,9.10
2022-08-26T01:47:31.394Z,8.38
2022-08-26T01:51:36.974Z,9.35
2022-08-26T01:55:41.685Z,8.95
2022-08-26T01:59:43.255Z,8.40
2022-08-26T02:04:10.615Z,9.48
2022-08-26T02:08:13.166Z,9.02
2022-08-26T02:12:18.244Z,8.93
2022-08-26T02:16:24.345Z,9.15
2022-08-26T02:20:26.584Z,8.85
2022-08-26T02:24:46.144Z,10.55
2022-08-26T02:29:07.551Z,9.27
2022-08-26T02:33:09.469Z,8.40
2022-08-26T02:37:11.491Z,10.20
2022-08-26T02:41:13.258Z,9.25
2022-08-26T02:45:16.794Z,9.88
2022-08-26T02:49:26.079Z,10.60
2022-08-26T02:53:31.695Z,10.00
2022-08-26T02:57:34.586Z,9.88
2022-08-26T03:01:36.393Z,9.43
2022-08-26T03:05:38.000Z,9.00
2022-08-26T03:09:41.683Z,9.43
2022-08-26T03:13:43.218Z,9.82
2022-08-26T03:17:49.115Z,9.35
2022-08-26T03:21:53.647Z,10.27
2022-08-26T03:25:59.615Z,10.50
2022-08-26T03:30:19.986Z,10.98
2022-08-26T03:34:21.545Z,9.85
2022-08-26T03:38:27.135Z,9.27
2022-08-26T03:42:29.011Z,10.18
2022-08-26T03:46:35.321Z,11.40
2022-08-26T03:50:37.309Z,11.98
2022-08-26T03:54:40.540Z,10.98
2022-08-26T03:58:45.024Z,11.52
2022-08-26T04:02:50.979Z,11.48
2022-08-26T04:06:58.953Z,10.68
2022-08-26T04:11:01.240Z,10.65
2022-08-26T04:15:05.962Z,10.27
2022-08-26T04:19:08.766Z,11.52
2022-08-26T04:23:10.270Z,11.27
2022-08-26T04:27:12.080Z,10.90
2022-08-26T04:31:15.510Z,11.32
2022-08-26T04:35:17.231Z,11.82
2022-08-26T04:39:20.179Z,10.77
2022-08-26T04:43:21.710Z,10.90
2022-08-26T04:47:23.154Z,11.15
2022-08-26T04:51:27.974Z,10.50
2022-08-26T04:55:39.671Z,10.52
2022-08-26T04:59:44.410Z,10.70
2022-08-26T05:03:46.416Z,11.30
2022-08-26T05:07:47.931Z,10.57
2022-08-26T05:11:52.106Z,10.55
2022-08-26T05:15:54.603Z,10.23
2022-08-26T05:20:00.617Z,10.13
2022-08-26T05:24:02.210Z,10.40
2022-08-26T05:28:04.529Z,10.00
2022-08-26T05:32:07.464Z,10.00
2022-08-26T05:36:15.233Z,9.93
2022-08-26T05:40:17.107Z,10.80
2022-08-26T05:44:21.077Z,10.20
2022-08-26T05:48:24.444Z,11.18
2022-08-26T05:52:26.194Z,9.38
2022-08-26T05:56:30.139Z,9.82
2022-08-26T06:00:31.614Z,9.05
2022-08-26T06:04:33.113Z,9.95
2022-08-26T06:08:35.091Z,10.27
2022-08-26T06:12:37.432Z,9.60
2022-08-26T06:16:41.286Z,9.50
2022-08-26T06:20:57.934Z,10.52
2022-08-26T06:25:18.394Z,9.27
2022-08-26T06:29:25.341Z,8.98
2022-08-26T06:33:28.749Z,10.43
2022-08-26T06:37:30.188Z,9.30
2022-08-26T06:41:33.521Z,9.10
2022-08-26T06:45:34.954Z,10.27
2022-08-26T06:49:37.163Z,9.43
2022-08-26T06:53:41.278Z,8.90
2022-08-26T06:57:42.753Z,9.85
2022-08-26T07:01:47.124Z,8.38
2022-08-26T07:05:51.276Z,9.45
2022-08-26T07:09:55.227Z,8.73
2022-08-26T07:13:58.831Z,7.97
2022-08-26T07:18:00.292Z,8.90
2022-08-26T07:22:04.694Z,8.25
2022-08-26T07:26:08.290Z,8.07
2022-08-26T07:30:10.383Z,8.23
2022-08-26T07:34:17.130Z,7.72
2022-08-26T07:38:19.389Z,7.13
2022-08-26T07:42:21.171Z,8.07
2022-08-26T07:46:27.528Z,8.10
2022-08-26T07:50:49.294Z,8.10
2022-08-26T07:54:52.091Z,7.50
2022-08-26T07:58:54.028Z,8.18
2022-08-26T08:02:55.687Z,7.75
2022-08-26T08:06:58.635Z,7.45
2022-08-26T08:11:00.449Z,7.57
2022-08-26T08:15:01.896Z,6.93
2022-08-26T08:19:03.788Z,7.00
2022-08-26T08:23:05.563Z,6.82
2022-08-26T08:27:08.815Z,8.18
2022-08-26T08:31:21.620Z,7.00
2022-08-26T08:35:34.674Z,7.72
2022-08-26T08:39:37.118Z,6.90
2022-08-26T08:43:44.668Z,6.95
2022-08-26T08:47:54.597Z,6.63
2022-08-26T08:52:02.364Z,7.03
2022-08-26T08:56:31.899Z,5.55
2022-08-26T09:00:46.436Z,6.07
2022-08-26T09:05:00.812Z,5.28
2022-08-26T09:09:03.890Z,5.82
2022-08-26T09:13:09.989Z,5.68
2022-08-26T09:17:53.330Z,5.50
2022-08-26T09:21:56.915Z,5.88
2022-08-26T09:26:14.031Z,6.25
2022-08-26T09:30:35.318Z,4.95
2022-08-26T09:34:51.603Z,5.57
2022-08-26T09:38:54.047Z,6.18
2022-08-26T09:43:10.712Z,6.00
2022-08-26T09:47:12.416Z,5.65
2022-08-26T09:51:23.079Z,5.03
2022-08-26T09:55:24.591Z,5.10
2022-08-26T09:59:30.539Z,5.80
2022-08-26T10:03:35.346Z,5.63
2022-08-26T10:07:48.368Z,5.97
2022-08-26T10:11:56.180Z,5.97
2022-08-26T10:16:03.723Z,6.68
2022-08-26T10:20:28.555Z,6.97
2022-08-26T10:24:58.041Z,5.65
2022-08-26T10:29:09.937Z,5.82
2022-08-26T10:33:15.341Z,5.82
2022-08-26T10:37:22.732Z,6.05
2022-08-26T10:41:27.765Z,6.15
2022-08-26T10:45:35.239Z,5.85
2022-08-26T10:49:38.254Z,5.53
2022-08-26T10:53:55.724Z,5.85
2022-08-26T10:58:04.756Z,5.78
2022-08-26T11:02:15.395Z,6.00
2022-08-26T11:06:19.860Z,6.75
2022-08-26T11:10:21.318Z,5.50
2022-08-26T11:14:28.360Z,6.80
2022-08-26T11:18:40.573Z,6.30
2022-08-26T11:22:47.913Z,6.82
2022-08-26T11:26:56.388Z,6.50
2022-08-26T11:30:58.487Z,6.88
2022-08-26T11:35:19.365Z,6.15
2022-08-26T11:39:33.374Z,5.85
2022-08-26T11:43:40.516Z,6.30
2022-08-26T11:47:42.100Z,6.45
2022-08-26T11:51:47.743Z,6.32
2022-08-26T11:55:53.250Z,8.38
2022-08-26T11:59:56.471Z,7.90
2022-08-26T12:03:59.995Z,6.45
2022-08-26T12:08:12.063Z,6.20
2022-08-26T12:12:24.581Z,4.65
2022-08-26T12:16:38.419Z,4.57
2022-08-26T12:20:54.180Z,4.53
2022-08-26T12:24:59.645Z,5.75
2022-08-26T12:29:09.409Z,6.53
2022-08-26T12:33:22.833Z,4.65
2022-08-26T12:37:27.074Z,4.47
2022-08-26T12:41:44.964Z,4.57
2022-08-26T12:45:59.879Z,4.05
2022-08-26T12:50:04.256Z,4.95
2022-08-26T12:54:07.204Z,4.47
2022-08-26T12:58:31.724Z,4.78
2022-08-26T13:02:39.781Z,4.30
2022-08-26T13:06:41.294Z,5.25
2022-08-26T13:10:46.588Z,5.15
2022-08-26T13:14:48.050Z,5.63
2022-08-26T13:18:53.021Z,6.93
2022-08-26T13:22:59.136Z,4.93
2022-08-26T13:27:02.089Z,5.32
2022-08-26T13:31:04.836Z,7.63
2022-08-26T13:35:07.613Z,6.22
2022-08-26T13:39:09.134Z,6.13
2022-08-26T13:43:11.517Z,6.25
2022-08-26T13:47:13.376Z,7.22
2022-08-26T13:51:16.469Z,7.45
2022-08-26T13:55:18.057Z,7.78
2022-08-26T13:59:19.644Z,7.75
2022-08-26T14:03:21.548Z,5.70
2022-08-26T14:07:23.720Z,6.00
2022-08-26T14:11:25.353Z,5.60
2022-08-26T14:15:27.791Z,5.32
2022-08-26T14:19:31.494Z,6.00
2022-08-26T14:23:33.228Z,7.00
2022-08-26T14:27:34.705Z,7.28
2022-08-26T14:31:37.789Z,6.63
2022-08-26T14:35:39.975Z,8.95
2022-08-26T14:39:50.196Z,9.05
2022-08-26T14:43:57.984Z,11.02
2022-08-26T14:47:59.799Z,10.90
2022-08-26T14:52:01.611Z,11.00
2022-08-26T14:56:04.034Z,11.48
2022-08-26T15:00:08.037Z,15.05
2022-08-26T15:04:09.545Z,9.30
2022-08-26T15:08:11.502Z,8.00
2022-08-26T15:12:12.988Z,6.50
2022-08-26T15:16:15.215Z,4.90
2022-08-26T15:20:16.831Z,5.25
2022-08-26T15:24:22.006Z,12.07
2022-08-26T15:28:23.627Z,6.95
2022-08-26T15:32:25.113Z,7.55
2022-08-26T15:36:28.910Z,7.25
2022-08-26T15:40:30.440Z,7.95
2022-08-26T15:44:34.006Z,9.15
2022-08-26T15:48:35.483Z,9.80
2022-08-26T15:52:40.921Z,9.95
2022-08-26T15:56:43.460Z,8.75
2022-08-26T16:00:45.221Z,10.20
2022-08-26T16:04:46.829Z,10.93
2022-08-26T16:08:50.010Z,12.68
2022-08-26T16:12:51.505Z,11.48
2022-08-26T16:16:53.412Z,14.80
2022-08-26T16:21:12.787Z,11.80
2022-08-26T16:25:15.577Z,11.30
2022-08-26T16:29:17.958Z,11.80
2022-08-26T16:33:29.201Z,11.95
2022-08-26T16:37:31.340Z,10.60
2022-08-26T16:41:33.035Z,11.93
2022-08-26T16:45:38.081Z,12.65
2022-08-26T16:49:43.823Z,11.80
2022-08-26T16:53:45.975Z,11.30
2022-08-26T16:57:48.307Z,11.02
2022-08-26T17:01:50.151Z,11.25
2022-08-26T17:05:51.671Z,12.65
2022-08-26T17:09:53.188Z,12.40
2022-08-26T17:13:54.772Z,11.35
2022-08-26T17:17:56.814Z,11.10
2022-08-26T17:21:58.375Z,11.43
2022-08-26T17:25:59.900Z,11.50
2022-08-26T17:30:01.363Z,11.02
2022-08-26T17:34:03.491Z,12.32
2022-08-26T17:38:04.999Z,13.07
2022-08-26T17:42:06.566Z,12.02
2022-08-26T17:46:10.060Z,13.82
2022-08-26T17:50:15.761Z,32.38
2022-08-26T17:54:17.230Z,14.65
2022-08-26T17:58:23.217Z,16.13
2022-08-26T18:02:25.265Z,14.48
2022-08-26T18:06:26.900Z,14.95
2022-08-26T18:10:28.454Z,15.27
2022-08-26T18:14:35.302Z,14.68
2022-08-26T18:18:38.308Z,15.68
2022-08-26T18:22:40.154Z,15.38
2022-08-26T18:26:48.016Z,16.77
2022-08-26T18:30:49.493Z,18.85
2022-08-26T18:34:51.102Z,17.90
2022-08-26T18:38:53.103Z,19.35
2022-08-26T18:42:54.597Z,17.95
2022-08-26T18:46:56.103Z,19.40
2022-08-26T18:50:59.140Z,19.75
2022-08-26T18:55:01.960Z,21.42
2022-08-26T18:59:05.444Z,23.00
2022-08-26T19:03:15.589Z,21.83
2022-08-26T19:07:20.829Z,24.13
2022-08-26T19:11:31.556Z,22.90
2022-08-26T19:15:41.173Z,24.08
2022-08-26T19:19:42.742Z,24.13
2022-08-26T19:23:47.025Z,24.35
2022-08-26T19:27:48.564Z,23.73
2022-08-26T19:31:50.235Z,23.08
2022-08-26T19:35:51.816Z,24.15
2022-08-26T19:39:53.427Z,25.17
2022-08-26T19:43:55.564Z,24.15
2022-08-26T19:48:00.188Z,23.52
2022-08-26T19:52:03.013Z,22.45
2022-08-26T19:56:04.549Z,23.42
2022-08-26T20:00:10.957Z,25.08
2022-08-26T20:04:12.829Z,23.13
2022-08-26T20:08:16.847Z,23.73
2022-08-26T20:12:24.818Z,22.95
2022-08-26T20:16:26.384Z,24.30
2022-08-26T20:20:46.438Z,23.23
2022-08-26T20:24:48.496Z,23.48
2022-08-26T20:28:51.021Z,22.25
2022-08-26T20:32:52.890Z,25.05
2022-08-26T20:36:54.630Z,22.90
2022-08-26T20:40:56.373Z,22.13
2022-08-26T20:44:57.978Z,22.45
2022-08-26T20:48:59.516Z,21.33
2022-08-26T20:53:02.239Z,21.58
2022-08-26T20:57:03.884Z,23.27
2022-08-26T21:01:08.016Z,19.85
2022-08-26T21:05:09.946Z,21.92
2022-08-26T21:09:13.170Z,22.90
2022-08-26T21:13:19.966Z,22.08
2022-08-26T21:17:21.538Z,22.42
2022-08-26T21:21:25.129Z,22.85
2022-08-26T21:25:27.026Z,20.63
2022-08-26T21:29:28.587Z,20.80
2022-08-26T21:33:30.078Z,19.45
2022-08-26T21:37:31.588Z,20.55
2022-08-26T21:41:33.115Z,18.92
2022-08-26T21:45:40.006Z,19.50
2022-08-26T21:49:41.575Z,19.30
2022-08-26T21:53:43.351Z,20.83
2022-08-26T21:57:45.172Z,19.08
2022-08-26T22:01:47.155Z,20.92
2022-08-26T22:05:52.115Z,18.70
2022-08-26T22:09:53.594Z,20.85
2022-08-26T22:13:56.960Z,22.05
2022-08-26T22:17:59.484Z,20.80
2022-08-26T22:22:02.286Z,20.38
2022-08-26T22:26:06.434Z,20.42
2022-08-26T22:30:08.184Z,19.85
2022-08-26T22:34:17.064Z,18.20
2022-08-26T22:38:19.698Z,18.10
2022-08-26T22:42:21.221Z,18.45
2022-08-26T22:46:26.070Z,17.40
2022-08-26T22:50:27.575Z,16.70
2022-08-26T22:54:29.072Z,17.42
2022-08-26T22:58:31.074Z,17.27
2022-08-26T23:02:32.588Z,15.57
2022-08-26T23:06:36.396Z,15.60
2022-08-26T23:10:40.571Z,14.88
2022-08-26T23:14:43.863Z,15.18
2022-08-26T23:18:45.383Z,15.35
2022-08-26T23:22:46.953Z,14.93
2022-08-26T23:26:48.702Z,13.93
2022-08-26T23:30:50.430Z,15.32
2022-08-26T23:34:58.960Z,13.68
2022-08-26T23:39:00.857Z,14.20
2022-08-26T23:43:06.543Z,14.27
2022-08-26T23:47:08.367Z,14.18
2022-08-26T23:51:34.266Z,14.18
2022-08-26T23:55:37.239Z,13.35
2022-08-26T23:59:39.052Z,13.85
